createdAt,value
2018-12-13T06:08:38.626Z,6.90
2018-12-13T06:11:13.640Z,8.15
2018-12-13T06:13:49.200Z,7.20
2018-12-13T06:16:22.452Z,7.63
2018-12-13T06:18:55.684Z,7.37
2018-12-13T06:21:29.182Z,6.97
2018-12-13T06:24:02.436Z,6.60
2018-12-13T06:26:36.785Z,6.77
2018-12-13T06:29:10.041Z,6.17
2018-12-13T06:31:43.436Z,7.37
2018-12-13T06:34:20.609Z,6.97
2018-12-13T06:36:54.636Z,6.77
2018-12-13T06:39:28.547Z,7.47
2018-12-13T06:42:19.579Z,7.37
2018-12-13T06:44:52.492Z,6.47
2018-12-13T06:47:35.609Z,6.90
2018-12-13T06:50:08.557Z,7.37
2018-12-13T06:52:42.140Z,6.53
2018-12-13T06:55:15.464Z,6.80
2018-12-13T06:57:48.692Z,6.73
2018-12-13T07:00:22.349Z,6.53
2018-12-13T07:02:58.211Z,6.40
2018-12-13T07:05:31.745Z,5.57
2018-12-13T07:08:09.536Z,5.87
2018-12-13T07:10:46.835Z,6.60
2018-12-13T07:16:04.525Z,6.50
2018-12-13T07:18:38.785Z,5.87
2018-12-13T07:21:16.629Z,6.03
2018-12-13T07:23:49.939Z,5.90
2018-12-13T07:26:23.785Z,5.87
2018-12-13T07:29:01.432Z,6.73
2018-12-13T07:31:35.103Z,6.97
2018-12-13T07:34:09.589Z,6.40
2018-12-13T07:36:42.737Z,6.70
2018-12-13T07:39:15.714Z,6.73
2018-12-13T07:41:48.714Z,6.40
2018-12-13T07:47:13.796Z,5.60
2018-12-13T07:49:46.664Z,6.73
2018-12-13T07:52:19.438Z,7.00
2018-12-13T07:54:52.158Z,6.97
2018-12-13T07:57:25.230Z,6.03
2018-12-13T07:59:58.149Z,6.87
2018-12-13T08:02:31.236Z,6.67
2018-12-13T08:05:06.725Z,7.13
2018-12-13T08:07:40.403Z,7.80
2018-12-13T08:10:14.296Z,8.67
2018-12-13T08:12:47.228Z,7.87
2018-12-13T08:18:14.728Z,7.23
2018-12-13T08:20:50.574Z,8.27
2018-12-13T08:23:23.616Z,7.60
2018-12-13T08:25:56.835Z,8.27
2018-12-13T08:28:32.802Z,8.73
2018-12-13T08:31:12.368Z,8.10
2018-12-13T08:33:45.480Z,7.20
2018-12-13T08:36:22.273Z,7.80
2018-12-13T08:38:57.792Z,7.63
2018-12-13T08:41:31.427Z,8.17
2018-12-13T08:44:04.517Z,7.53
2018-12-13T08:46:37.344Z,7.70
2018-12-13T08:49:10.428Z,7.50
2018-12-13T08:51:43.573Z,8.10
2018-12-13T08:54:16.856Z,7.80
2018-12-13T08:56:49.387Z,7.37
2018-12-13T08:59:22.090Z,7.93
2018-12-13T09:01:55.520Z,7.63
2018-12-13T09:04:28.228Z,8.07
2018-12-13T09:07:01.787Z,8.60
2018-12-13T09:09:34.441Z,8.30
2018-12-13T09:12:06.954Z,7.70
2018-12-13T09:14:40.221Z,8.17
2018-12-13T09:17:13.726Z,7.83
2018-12-13T09:19:46.255Z,7.77
2018-12-13T09:22:19.292Z,8.03
2018-12-13T09:24:51.912Z,8.00
2018-12-13T09:27:24.458Z,8.10
2018-12-13T09:29:58.496Z,7.77
2018-12-13T09:32:31.065Z,8.30
2018-12-13T09:35:04.629Z,7.97
2018-12-13T09:37:37.269Z,7.77
2018-12-13T09:40:09.812Z,7.97
2018-12-13T09:42:42.367Z,8.27
2018-12-13T09:45:15.004Z,7.50
2018-12-13T09:47:47.810Z,7.50
2018-12-13T09:50:20.251Z,7.60
2018-12-13T09:52:55.037Z,7.57
2018-12-13T09:55:28.138Z,8.00
2018-12-13T09:58:00.707Z,7.50
2018-12-13T10:00:37.579Z,8.00
2018-12-13T10:03:10.032Z,8.00
2018-12-13T10:05:45.362Z,7.53
2018-12-13T10:08:17.986Z,7.50
2018-12-13T10:10:51.289Z,7.93
2018-12-13T10:13:24.903Z,8.30
2018-12-13T10:16:00.373Z,7.17
2018-12-13T10:18:33.967Z,7.60
2018-12-13T10:21:07.567Z,7.07
2018-12-13T10:23:41.021Z,8.03
2018-12-13T10:26:14.321Z,7.07
2018-12-13T10:28:47.089Z,7.83
2018-12-13T10:31:20.134Z,8.07
2018-12-13T10:33:52.645Z,8.13
2018-12-13T10:39:19.396Z,7.53
2018-12-13T10:41:52.006Z,7.73
2018-12-13T10:44:25.279Z,6.97
2018-12-13T10:46:59.058Z,7.53
2018-12-13T10:49:32.046Z,8.03
2018-12-13T10:52:05.589Z,7.90
2018-12-13T10:54:39.087Z,6.93
2018-12-13T10:57:12.272Z,7.80
2018-12-13T10:59:45.810Z,6.90
2018-12-13T11:02:18.597Z,7.53
2018-12-13T11:04:51.773Z,8.03
2018-12-13T11:07:32.338Z,7.07
2018-12-13T11:10:04.987Z,8.30
2018-12-13T11:12:38.447Z,8.07
2018-12-13T11:15:11.002Z,7.33
2018-12-13T11:17:44.923Z,7.80
2018-12-13T11:20:17.858Z,7.57
2018-12-13T11:22:50.684Z,7.47
2018-12-13T11:25:23.231Z,7.17
2018-12-13T11:28:47.009Z,7.40
2018-12-13T11:31:19.857Z,8.07
2018-12-13T11:33:52.367Z,7.10
2018-12-13T11:36:25.904Z,7.37
2018-12-13T11:39:05.562Z,8.13
2018-12-13T11:41:34.922Z,7.90
2018-12-13T11:44:07.437Z,8.10
2018-12-13T11:46:40.021Z,7.70
2018-12-13T11:49:14.133Z,7.70
2018-12-13T11:51:46.619Z,7.67
2018-12-13T11:54:32.285Z,7.37
2018-12-13T11:57:04.750Z,7.67
2018-12-13T11:59:37.260Z,7.50
2018-12-13T12:02:09.835Z,7.63
2018-12-13T12:04:42.577Z,7.87
2018-12-13T12:07:16.166Z,7.37
2018-12-13T12:09:49.163Z,6.63
2018-12-13T12:12:23.176Z,7.53
2018-12-13T12:14:55.717Z,7.20
2018-12-13T12:17:29.172Z,7.20
2018-12-13T12:20:02.574Z,7.07
2018-12-13T12:22:35.095Z,6.53
2018-12-13T12:25:08.950Z,6.50
2018-12-13T12:27:41.626Z,6.80
2018-12-13T12:30:15.146Z,7.40
2018-12-13T12:32:48.013Z,6.73
2018-12-13T12:35:21.160Z,7.30
2018-12-13T12:37:54.391Z,7.37
2018-12-13T12:40:27.240Z,7.43
2018-12-13T12:42:59.858Z,7.13
2018-12-13T12:45:32.711Z,7.97
2018-12-13T12:48:06.036Z,7.37
2018-12-13T12:50:38.573Z,6.43
2018-12-13T12:53:13.334Z,6.77
2018-12-13T12:55:50.466Z,6.67
2018-12-13T12:58:23.039Z,7.03
2018-12-13T13:00:56.239Z,6.77
2018-12-13T13:03:29.084Z,7.10
2018-12-13T13:06:01.935Z,6.93
2018-12-13T13:08:34.589Z,6.87
2018-12-13T13:11:07.443Z,7.70
2018-12-13T13:13:39.919Z,7.73
2018-12-13T13:16:12.376Z,7.37
2018-12-13T13:18:45.809Z,8.27
2018-12-13T13:21:18.687Z,6.43
2018-12-13T13:23:51.132Z,7.80
2018-12-13T13:26:24.018Z,6.73
2018-12-13T13:28:57.094Z,6.40
2018-12-13T13:31:29.572Z,6.47
2018-12-13T13:34:03.477Z,7.03
2018-12-13T13:36:36.739Z,6.00
2018-12-13T13:39:10.690Z,5.80
2018-12-13T13:41:43.540Z,7.03
2018-12-13T13:44:16.916Z,6.47
2018-12-13T13:46:50.443Z,6.87
2018-12-13T13:49:22.957Z,6.13
2018-12-13T13:51:56.008Z,6.57
2018-12-13T13:54:30.303Z,6.77
2018-12-13T13:59:46.096Z,6.77
2018-12-13T14:02:18.646Z,5.87
2018-12-13T14:04:51.215Z,5.67
2018-12-13T14:07:23.933Z,5.80
2018-12-13T14:09:57.442Z,5.87
2018-12-13T14:12:30.436Z,6.10
2018-12-13T14:15:03.624Z,6.30
2018-12-13T14:17:36.122Z,6.10
2018-12-13T14:20:09.494Z,5.83
2018-12-13T14:22:42.882Z,5.67
2018-12-13T14:25:15.765Z,5.23
2018-12-13T14:27:48.350Z,4.90
2018-12-13T14:30:20.928Z,5.50
2018-12-13T14:32:54.098Z,4.60
2018-12-13T14:35:27.178Z,4.90
2018-12-13T14:38:00.897Z,4.30
2018-12-13T14:40:33.404Z,4.63
2018-12-13T14:43:05.958Z,4.30
2018-12-13T14:45:39.003Z,5.27
2018-12-13T14:48:11.497Z,6.00
2018-12-13T14:50:44.184Z,4.80
2018-12-13T14:53:16.854Z,5.47
2018-12-13T14:55:49.803Z,8.87
2018-12-13T14:58:22.288Z,5.73
2018-12-13T15:00:55.033Z,12.43
2018-12-13T15:03:28.005Z,5.33
2018-12-13T15:06:00.584Z,5.97
2018-12-13T15:08:33.548Z,4.93
2018-12-13T15:11:06.056Z,5.97
2018-12-13T15:13:38.635Z,4.97
2018-12-13T15:16:11.723Z,5.17
2018-12-13T15:18:46.148Z,5.70
2018-12-13T15:21:19.215Z,5.43
2018-12-13T15:23:51.646Z,6.00
2018-12-13T15:26:25.259Z,5.40
2018-12-13T15:28:58.744Z,5.43
2018-12-13T15:31:31.649Z,5.63
2018-12-13T15:34:05.441Z,5.13
2018-12-13T15:36:37.987Z,6.00
2018-12-13T15:39:10.626Z,5.20
2018-12-13T15:41:43.783Z,6.27
2018-12-13T15:44:16.779Z,4.73
2018-12-13T15:46:49.677Z,5.53
2018-12-13T15:49:22.116Z,5.03
2018-12-13T15:51:58.588Z,5.03
2018-12-13T15:54:31.088Z,4.80
2018-12-13T15:57:03.784Z,5.30
2018-12-13T15:59:36.564Z,5.33
2018-12-13T16:02:10.504Z,6.57
2018-12-13T16:04:43.322Z,5.50
2018-12-13T16:07:16.116Z,4.93
2018-12-13T16:09:48.780Z,5.80
2018-12-13T16:12:21.402Z,5.57
2018-12-13T16:14:54.000Z,5.07
2018-12-13T16:17:26.476Z,4.90
2018-12-13T16:19:59.623Z,5.33
2018-12-13T16:22:32.065Z,5.70
2018-12-13T16:25:04.512Z,5.20
2018-12-13T16:27:37.007Z,5.57
2018-12-13T16:30:09.907Z,5.00
2018-12-13T16:32:42.549Z,6.17
2018-12-13T16:35:15.277Z,5.37
2018-12-13T16:37:47.680Z,6.17
2018-12-13T16:40:21.821Z,6.00
2018-12-13T16:42:54.580Z,5.93
2018-12-13T16:45:29.379Z,5.93
2018-12-13T16:48:02.177Z,5.90
2018-12-13T16:50:35.468Z,5.97
2018-12-13T16:53:07.968Z,6.27
2018-12-13T16:55:41.748Z,6.70
2018-12-13T16:58:14.330Z,5.90
2018-12-13T17:00:47.397Z,5.80
2018-12-13T17:03:31.938Z,6.13
2018-12-13T17:06:06.599Z,6.23
2018-12-13T17:08:39.611Z,6.10
2018-12-13T17:11:14.574Z,6.17
2018-12-13T17:13:47.764Z,5.80
2018-12-13T17:16:20.539Z,5.83
2018-12-13T17:18:52.969Z,6.07
2018-12-13T17:21:26.162Z,6.70
2018-12-13T17:26:41.274Z,5.90
2018-12-13T17:29:15.121Z,5.93
2018-12-13T17:31:47.545Z,6.97
2018-12-13T17:34:20.284Z,6.40
2018-12-13T17:36:52.784Z,6.67
2018-12-13T17:39:25.741Z,6.60
2018-12-13T17:41:59.552Z,5.83
2018-12-13T17:44:32.998Z,6.67
2018-12-13T17:47:06.960Z,6.53
2018-12-13T17:49:40.090Z,6.63
2018-12-13T17:52:14.481Z,6.63
2018-12-13T17:54:47.008Z,6.33
2018-12-13T17:57:20.882Z,6.13
2018-12-13T17:59:54.664Z,6.67
2018-12-13T18:02:29.166Z,6.83
2018-12-13T18:05:01.707Z,6.40
2018-12-13T18:07:34.249Z,6.63
2018-12-13T18:10:10.592Z,7.20
2018-12-13T18:12:43.790Z,7.03
2018-12-13T18:15:17.285Z,6.50
2018-12-13T18:17:51.954Z,7.13
2018-12-13T18:20:24.999Z,7.27
2018-12-13T18:22:57.628Z,6.93
2018-12-13T18:25:32.077Z,7.47
2018-12-13T18:28:05.295Z,7.43
2018-12-13T18:30:38.152Z,7.03
2018-12-13T18:33:11.941Z,7.70
2018-12-13T18:35:45.430Z,6.60
2018-12-13T18:38:18.633Z,7.27
2018-12-13T18:40:52.387Z,7.43
2018-12-13T18:43:26.240Z,7.33
2018-12-13T18:46:00.992Z,7.10
2018-12-13T18:48:34.647Z,6.87
2018-12-13T18:51:07.906Z,8.43
2018-12-13T18:53:41.051Z,7.13
2018-12-13T18:56:14.925Z,7.43
2018-12-13T18:58:48.825Z,7.80
2018-12-13T19:01:21.919Z,7.47
2018-12-13T19:04:02.089Z,7.57
2018-12-13T19:06:35.566Z,7.17
2018-12-13T19:09:09.553Z,7.97
2018-12-13T19:11:43.436Z,7.47
2018-12-13T19:17:17.019Z,7.90
2018-12-13T19:19:50.575Z,7.43
2018-12-13T19:22:36.944Z,7.80
2018-12-13T19:25:11.065Z,7.97
2018-12-13T19:27:44.368Z,7.03
2018-12-13T19:30:18.779Z,7.63
2018-12-13T19:32:53.676Z,7.67
2018-12-13T19:35:27.344Z,7.50
2018-12-13T19:38:01.169Z,7.73
2018-12-13T19:43:38.148Z,8.43
2018-12-13T19:46:23.173Z,8.53
2018-12-13T19:48:57.167Z,8.47
2018-12-13T19:51:29.857Z,7.47
2018-12-13T19:54:06.338Z,8.53
2018-12-13T19:56:41.739Z,8.13
2018-12-13T20:02:03.472Z,8.50
2018-12-13T20:04:38.807Z,8.70
2018-12-13T20:07:13.084Z,7.93
2018-12-13T20:09:45.840Z,8.27
2018-12-13T20:12:18.342Z,8.97
2018-12-13T20:14:50.873Z,8.57
2018-12-13T20:17:23.309Z,9.00
2018-12-13T20:19:55.783Z,8.37
2018-12-13T20:22:28.312Z,8.33
2018-12-13T20:25:00.790Z,8.47
2018-12-13T20:27:33.573Z,9.00
2018-12-13T20:30:07.816Z,9.07
2018-12-13T20:32:40.355Z,9.30
2018-12-13T20:35:13.235Z,9.60
2018-12-13T20:37:46.152Z,9.47
2018-12-13T20:40:18.701Z,9.27
2018-12-13T20:42:51.804Z,8.77
2018-12-13T20:45:24.305Z,9.43
2018-12-13T20:47:57.092Z,10.73
2018-12-13T20:50:29.594Z,10.20
2018-12-13T20:53:02.052Z,9.33
2018-12-13T20:55:34.527Z,9.37
2018-12-13T20:58:07.055Z,9.73
2018-12-13T21:00:39.809Z,9.30
2018-12-13T21:03:12.258Z,9.23
2018-12-13T21:05:45.123Z,9.20
2018-12-13T21:08:17.612Z,9.43
2018-12-13T21:10:50.073Z,8.97
2018-12-13T21:13:22.553Z,9.90
2018-12-13T21:15:56.156Z,9.40
2018-12-13T21:18:28.938Z,8.90
2018-12-13T21:21:01.420Z,10.10
2018-12-13T21:23:34.456Z,9.83
2018-12-13T21:26:06.935Z,8.93
2018-12-13T21:28:46.076Z,9.10
2018-12-13T21:31:18.550Z,9.03
2018-12-13T21:33:51.036Z,9.77
2018-12-13T21:36:23.532Z,8.90
2018-12-13T21:38:56.184Z,8.93
2018-12-13T21:41:28.692Z,8.53
2018-12-13T21:44:01.344Z,9.10
2018-12-13T21:46:33.822Z,8.27
2018-12-13T21:49:06.760Z,9.27
2018-12-13T21:51:39.532Z,8.47
2018-12-13T21:54:11.979Z,8.50
2018-12-13T21:56:45.472Z,10.17
2018-12-13T21:59:18.490Z,8.87
2018-12-13T22:01:50.947Z,9.20
2018-12-13T22:04:23.769Z,9.90
2018-12-13T22:06:56.725Z,9.40
2018-12-13T22:09:29.464Z,8.97
2018-12-13T22:12:01.914Z,9.43
2018-12-13T22:14:34.693Z,9.00
2018-12-13T22:17:07.128Z,9.77
2018-12-13T22:19:39.580Z,9.63
2018-12-13T22:22:12.051Z,10.37
2018-12-13T22:24:44.476Z,10.00
